Time;durP1;ratioP1;P1;durP2;ratioP2;P2;SDS_P1;SDS_P2;PMS_P1;PMS_P2;Temp;Humidity;BMP_temperature;BMP_pressure;BME280_temperature;BME280_humidity;BME280_pressure;Samples;Min_cycle;Max_cycle;Signal;HPM_P1;HPM_P2
2022/03/19 00:01:50;;;;;;;15.70;2.90;;;;;;;;;;5020360;28;20183;-69
2022/03/19 00:04:16;;;;;;;8.60;3.07;;;;;;;;;;5019792;28;20189;-69
2022/03/19 00:06:42;;;;;;;9.50;2.67;;;;;;;;;;5013732;28;20273;-69
2022/03/19 00:09:07;;;;;;;15.73;3.17;;;;;;;;;;5016485;28;20184;-69
2022/03/19 00:11:34;;;;;;;9.77;3.40;;;;;;;;;;5004845;28;20469;-69
2022/03/19 00:13:59;;;;;;;11.80;2.90;;;;;;;;;;5021703;28;20223;-69
2022/03/19 00:16:24;;;;;;;13.80;2.90;;;;;;;;;;5020872;28;20434;-69
2022/03/19 00:18:50;;;;;;;7.70;2.70;;;;;;;;;;5020701;28;25615;-69
2022/03/19 00:21:15;;;;;;;13.23;3.60;;;;;;;;;;5021866;28;20196;-69
2022/03/19 00:23:41;;;;;;;8.37;2.40;;;;;;;;;;5020509;28;20203;-69
2022/03/19 00:26:07;;;;;;;11.40;2.53;;;;;;;;;;5020834;28;20198;-69
2022/03/19 00:28:32;;;;;;;15.83;3.30;;;;;;;;;;5017901;28;20174;-69
2022/03/19 00:30:57;;;;;;;10.30;2.90;;;;;;;;;;5020993;28;20460;-69
2022/03/19 00:33:22;;;;;;;10.80;2.90;;;;;;;;;;5015762;28;20270;-69
2022/03/19 00:35:48;;;;;;;7.30;2.37;;;;;;;;;;5020689;28;20203;-69
2022/03/19 00:38:14;;;;;;;11.17;3.33;;;;;;;;;;5019266;28;20184;-69
2022/03/19 00:40:39;;;;;;;11.93;2.73;;;;;;;;;;5021016;28;20188;-69
2022/03/19 00:43:05;;;;;;;9.90;2.70;;;;;;;;;;5013363;28;20507;-69
2022/03/19 00:45:30;;;;;;;13.43;2.90;;;;;;;;;;5016653;28;20593;-69
2022/03/19 00:47:55;;;;;;;9.00;3.07;;;;;;;;;;5010322;28;20204;-69
2022/03/19 00:50:21;;;;;;;11.27;3.53;;;;;;;;;;5017730;28;20176;-69
2022/03/19 00:52:46;;;;;;;15.60;2.90;;;;;;;;;;5019717;28;20979;-69
2022/03/19 00:55:11;;;;;;;8.90;2.03;;;;;;;;;;5018547;28;20207;-69
2022/03/19 00:57:40;;;;;;;12.93;3.47;;;;;;;;;;5021260;28;20646;-69
2022/03/19 01:00:05;;;;;;;18.40;3.07;;;;;;;;;;5020296;28;20185;-69
2022/03/19 01:02:31;;;;;;;16.67;2.90;;;;;;;;;;5014898;28;20522;-69
2022/03/19 01:04:56;;;;;;;16.00;2.67;;;;;;;;;;5017406;28;20462;-69
2022/03/19 01:07:21;;;;;;;14.67;3.17;;;;;;;;;;5018200;28;20191;-69
2022/03/19 01:09:47;;;;;;;10.33;2.43;;;;;;;;;;5017717;28;20203;-69
2022/03/19 01:12:12;;;;;;;12.37;3.00;;;;;;;;;;5021936;28;20211;-69
2022/03/19 01:14:37;;;;;;;10.40;2.50;;;;;;;;;;5017764;28;20294;-69
2022/03/19 01:17:03;;;;;;;8.97;2.80;;;;;;;;;;5018185;28;20602;-69
2022/03/19 01:20:14;;;;;;;12.53;2.57;;;;;;;;;;5015307;28;20176;-69
2022/03/19 01:22:14;;;;;;;18.67;3.90;;;;;;;;;;5006179;28;20860;-70
2022/03/19 01:24:40;;;;;;;11.30;3.00;;;;;;;;;;5017094;28;20580;-69
2022/03/19 01:27:05;;;;;;;10.73;2.93;;;;;;;;;;5015569;28;20181;-69
2022/03/19 01:29:30;;;;;;;12.30;3.30;;;;;;;;;;5012278;28;20177;-69
2022/03/19 01:31:56;;;;;;;9.67;3.13;;;;;;;;;;5015502;28;20267;-69
2022/03/19 01:34:21;;;;;;;7.57;3.13;;;;;;;;;;5026914;22;20820;-71
2022/03/19 01:36:46;;;;;;;12.53;3.50;;;;;;;;;;5018615;28;20189;-71
2022/03/19 01:39:12;;;;;;;9.57;2.50;;;;;;;;;;5013396;28;20673;-71
2022/03/19 01:41:44;;;;;;;14.10;3.00;;;;;;;;;;5015758;28;20187;-71
2022/03/19 01:44:16;;;;;;;12.83;2.63;;;;;;;;;;5013900;28;20201;-70
2022/03/19 01:46:53;;;;;;;11.83;2.87;;;;;;;;;;5009277;28;20470;-69
2022/03/19 01:49:18;;;;;;;15.10;2.40;;;;;;;;;;5007117;28;20478;-70
2022/03/19 01:51:44;;;;;;;9.10;3.10;;;;;;;;;;5005098;28;21682;-69
2022/03/19 01:54:09;;;;;;;9.27;2.93;;;;;;;;;;5009054;28;20570;-69
2022/03/19 01:56:34;;;;;;;10.97;2.70;;;;;;;;;;5012207;28;20207;-70
2022/03/19 01:59:00;;;;;;;7.63;2.57;;;;;;;;;;5005491;28;20189;-69
2022/03/19 02:01:25;;;;;;;15.23;3.80;;;;;;;;;;5009131;28;20183;-69
2022/03/19 02:03:51;;;;;;;19.23;3.47;;;;;;;;;;4999729;28;20971;-69
2022/03/19 02:06:16;;;;;;;5.93;1.70;;;;;;;;;;4993701;28;20200;-69
2022/03/19 02:08:44;;;;;;;10.63;2.90;;;;;;;;;;5009558;28;20668;-69
2022/03/19 02:11:10;;;;;;;10.73;2.53;;;;;;;;;;5001586;28;20192;-69
2022/03/19 02:13:35;;;;;;;12.90;3.00;;;;;;;;;;5011978;28;20456;-70
2022/03/19 02:16:00;;;;;;;11.90;3.17;;;;;;;;;;5002995;28;20188;-69
2022/03/19 02:18:26;;;;;;;12.53;3.00;;;;;;;;;;5009145;28;20180;-69
2022/03/19 02:20:55;;;;;;;8.70;2.63;;;;;;;;;;5007918;28;20197;-69
2022/03/19 02:26:07;;;;;;;17.43;3.37;;;;;;;;;;5004501;28;20469;-69
2022/03/19 02:28:32;;;;;;;12.27;3.50;;;;;;;;;;5009601;28;20431;-70
2022/03/19 02:30:58;;;;;;;12.43;2.87;;;;;;;;;;5006944;28;20176;-69
2022/03/19 02:33:23;;;;;;;8.83;3.30;;;;;;;;;;5006873;28;20205;-70
2022/03/19 02:35:48;;;;;;;12.23;3.40;;;;;;;;;;5004202;28;20635;-69
2022/03/19 02:38:14;;;;;;;14.80;3.93;;;;;;;;;;5005080;28;20184;-69
2022/03/19 02:40:39;;;;;;;11.80;3.73;;;;;;;;;;5002248;28;20618;-69
2022/03/19 02:43:04;;;;;;;13.67;3.83;;;;;;;;;;5008092;28;20628;-69
2022/03/19 02:45:30;;;;;;;14.13;4.50;;;;;;;;;;5007251;28;20290;-69
2022/03/19 02:47:58;;;;;;;9.37;3.50;;;;;;;;;;5010757;28;20181;-69
2022/03/19 02:50:25;;;;;;;11.80;4.30;;;;;;;;;;5007830;28;20169;-69
2022/03/19 02:52:51;;;;;;;12.80;4.73;;;;;;;;;;5005862;28;20440;-69
2022/03/19 02:55:16;;;;;;;10.50;4.27;;;;;;;;;;5004553;28;20465;-70
2022/03/19 02:57:41;;;;;;;12.10;3.73;;;;;;;;;;5006040;28;20288;-69
2022/03/19 03:00:07;;;;;;;9.87;3.90;;;;;;;;;;5009723;28;20191;-69
2022/03/19 03:02:32;;;;;;;16.53;5.50;;;;;;;;;;5007423;28;20536;-69
2022/03/19 03:04:57;;;;;;;12.97;4.50;;;;;;;;;;5003912;28;20610;-69
2022/03/19 03:07:23;;;;;;;14.87;5.20;;;;;;;;;;5008060;28;20204;-69
2022/03/19 03:09:48;;;;;;;14.77;4.73;;;;;;;;;;5004387;28;20180;-69
2022/03/19 03:12:14;;;;;;;14.23;4.80;;;;;;;;;;5003374;28;20180;-70
2022/03/19 03:14:39;;;;;;;12.07;3.93;;;;;;;;;;5006477;28;20200;-69
2022/03/19 03:17:04;;;;;;;22.43;5.60;;;;;;;;;;5005973;28;20919;-69
2022/03/19 03:19:30;;;;;;;13.07;5.03;;;;;;;;;;5006142;28;20722;-69
2022/03/19 03:21:55;;;;;;;15.33;4.83;;;;;;;;;;5007428;28;20617;-69
2022/03/19 03:24:22;;;;;;;8.77;4.27;;;;;;;;;;5003735;28;20217;-69
2022/03/19 03:26:47;;;;;;;15.00;4.87;;;;;;;;;;5007941;28;20212;-70
2022/03/19 03:29:14;;;;;;;17.00;4.73;;;;;;;;;;5002824;28;20800;-70
2022/03/19 03:31:39;;;;;;;9.00;4.43;;;;;;;;;;5005637;28;20173;-69
2022/03/19 03:34:05;;;;;;;20.23;5.07;;;;;;;;;;5004996;28;20698;-69
2022/03/19 03:36:30;;;;;;;10.10;4.37;;;;;;;;;;5003050;28;20603;-69
2022/03/19 03:38:55;;;;;;;13.43;5.00;;;;;;;;;;5006720;28;20195;-69
2022/03/19 03:41:21;;;;;;;14.13;5.27;;;;;;;;;;5006386;28;20193;-69
2022/03/19 03:43:46;;;;;;;11.87;5.17;;;;;;;;;;5004146;28;20261;-69
2022/03/19 03:46:12;;;;;;;13.17;4.77;;;;;;;;;;5006201;28;20208;-70
2022/03/19 03:48:38;;;;;;;10.30;4.70;;;;;;;;;;5003117;28;20199;-70
2022/03/19 03:51:06;;;;;;;12.77;4.30;;;;;;;;;;5008972;28;20427;-69
2022/03/19 03:53:32;;;;;;;9.70;4.27;;;;;;;;;;5006439;28;20431;-69
2022/03/19 03:55:57;;;;;;;15.87;4.80;;;;;;;;;;5019637;28;20481;-69
2022/03/19 03:58:23;;;;;;;9.50;5.10;;;;;;;;;;5009761;28;20538;-69
2022/03/19 04:00:50;;;;;;;11.73;4.90;;;;;;;;;;4996713;28;20190;-69
2022/03/19 04:03:15;;;;;;;13.13;5.57;;;;;;;;;;5005317;28;21356;-69
2022/03/19 04:05:41;;;;;;;9.57;4.30;;;;;;;;;;5008472;28;20479;-69
2022/03/19 04:08:06;;;;;;;9.40;5.07;;;;;;;;;;5007382;28;20189;-70
2022/03/19 04:10:32;;;;;;;14.47;5.70;;;;;;;;;;5006451;28;20333;-69
2022/03/19 04:12:58;;;;;;;18.07;6.40;;;;;;;;;;5011848;28;20658;-69
2022/03/19 04:15:23;;;;;;;10.60;5.40;;;;;;;;;;5006760;28;20661;-69
2022/03/19 04:17:49;;;;;;;14.40;6.20;;;;;;;;;;5025841;28;20493;-69
2022/03/19 04:20:15;;;;;;;13.80;7.03;;;;;;;;;;5012122;28;20181;-69
2022/03/19 04:22:41;;;;;;;12.27;6.00;;;;;;;;;;5010518;28;20197;-69
2022/03/19 04:25:14;;;;;;;14.97;6.37;;;;;;;;;;5002740;28;20585;-70
2022/03/19 04:27:40;;;;;;;16.83;6.50;;;;;;;;;;5006088;28;20814;-70
2022/03/19 04:30:05;;;;;;;12.50;6.53;;;;;;;;;;5010427;28;20434;-70
2022/03/19 04:32:31;;;;;;;12.93;6.13;;;;;;;;;;5012556;28;20442;-70
2022/03/19 04:34:56;;;;;;;13.60;6.30;;;;;;;;;;5005505;28;20698;-69
2022/03/19 04:37:21;;;;;;;15.83;8.13;;;;;;;;;;5010127;28;20184;-69
2022/03/19 04:39:46;;;;;;;16.73;7.20;;;;;;;;;;5010341;28;20196;-69
2022/03/19 04:42:12;;;;;;;18.23;7.27;;;;;;;;;;5010256;28;20192;-69
2022/03/19 04:44:37;;;;;;;15.23;7.60;;;;;;;;;;5008500;28;20735;-70
2022/03/19 04:47:03;;;;;;;18.10;8.00;;;;;;;;;;5005774;28;21110;-70
2022/03/19 04:49:29;;;;;;;14.70;7.63;;;;;;;;;;5009192;28;20177;-69
2022/03/19 04:51:54;;;;;;;10.33;6.57;;;;;;;;;;5009663;28;20816;-69
2022/03/19 04:54:20;;;;;;;17.60;7.77;;;;;;;;;;5007496;28;20455;-69
2022/03/19 04:56:46;;;;;;;15.10;7.43;;;;;;;;;;5003387;28;20184;-70
2022/03/19 04:59:13;;;;;;;18.07;7.50;;;;;;;;;;5009806;28;20216;-70
2022/03/19 05:01:39;;;;;;;19.67;7.90;;;;;;;;;;5009737;28;20584;-69
2022/03/19 05:04:05;;;;;;;18.67;8.17;;;;;;;;;;5008271;28;20463;-70
2022/03/19 05:06:30;;;;;;;13.97;7.90;;;;;;;;;;5010191;28;25085;-70
2022/03/19 05:11:40;;;;;;;13.53;7.67;;;;;;;;;;5010018;28;20234;-70
2022/03/19 05:14:06;;;;;;;18.10;8.07;;;;;;;;;;5009515;28;20926;-70
2022/03/19 05:16:32;;;;;;;15.60;7.57;;;;;;;;;;5008028;28;20188;-69
2022/03/19 05:18:57;;;;;;;11.93;7.60;;;;;;;;;;5006761;28;20211;-70
2022/03/19 05:21:22;;;;;;;19.60;8.67;;;;;;;;;;5005902;28;20452;-69
2022/03/19 05:23:48;;;;;;;21.87;9.40;;;;;;;;;;5009414;28;20801;-69
2022/03/19 05:26:13;;;;;;;17.13;8.23;;;;;;;;;;5006612;28;20262;-70
2022/03/19 05:28:38;;;;;;;16.27;9.03;;;;;;;;;;5009680;28;20211;-69
2022/03/19 05:31:04;;;;;;;13.40;7.93;;;;;;;;;;5009701;28;21363;-70
2022/03/19 05:36:14;;;;;;;16.70;8.20;;;;;;;;;;5009783;28;20199;-70
2022/03/19 05:38:39;;;;;;;15.20;8.47;;;;;;;;;;5006856;28;20436;-71
2022/03/19 05:41:05;;;;;;;17.20;8.07;;;;;;;;;;5007397;28;20300;-71
2022/03/19 05:43:30;;;;;;;17.90;7.77;;;;;;;;;;5009580;28;20234;-70
2022/03/19 05:45:55;;;;;;;12.70;7.60;;;;;;;;;;5005062;28;20208;-71
2022/03/19 05:48:20;;;;;;;14.53;7.10;;;;;;;;;;5008961;28;20177;-71
2022/03/19 05:50:46;;;;;;;13.73;7.47;;;;;;;;;;5005050;28;20185;-70
2022/03/19 05:53:12;;;;;;;11.63;6.67;;;;;;;;;;5023813;28;20571;-71
2022/03/19 05:55:37;;;;;;;16.57;6.70;;;;;;;;;;5006668;28;20184;-71
2022/03/19 05:58:02;;;;;;;13.67;6.13;;;;;;;;;;5001753;28;20487;-71
2022/03/19 06:00:27;;;;;;;11.43;5.90;;;;;;;;;;5008446;28;21150;-70
2022/03/19 06:02:53;;;;;;;16.20;6.83;;;;;;;;;;5009932;28;20181;-70
2022/03/19 06:05:18;;;;;;;16.20;6.40;;;;;;;;;;5007232;28;20201;-69
2022/03/19 06:07:43;;;;;;;14.83;6.80;;;;;;;;;;5003864;28;20188;-70
2022/03/19 06:10:09;;;;;;;15.20;5.83;;;;;;;;;;5009827;28;20181;-70
2022/03/19 06:12:34;;;;;;;17.00;8.50;;;;;;;;;;5009193;28;20177;-70
2022/03/19 06:15:00;;;;;;;16.20;7.37;;;;;;;;;;5006638;28;20291;-69
2022/03/19 06:17:25;;;;;;;14.70;7.30;;;;;;;;;;5006849;28;20560;-69
2022/03/19 06:19:51;;;;;;;15.10;7.23;;;;;;;;;;5003237;28;20253;-70
2022/03/19 06:22:17;;;;;;;14.70;7.50;;;;;;;;;;5013900;28;20184;-70
2022/03/19 06:24:42;;;;;;;17.37;8.20;;;;;;;;;;5011594;28;20671;-70
2022/03/19 06:27:07;;;;;;;11.97;6.77;;;;;;;;;;5008846;28;20182;-70
2022/03/19 06:29:33;;;;;;;18.23;8.43;;;;;;;;;;4999470;28;20192;-69
2022/03/19 06:31:58;;;;;;;20.07;8.23;;;;;;;;;;5007684;28;20233;-69
2022/03/19 06:34:23;;;;;;;18.87;7.33;;;;;;;;;;5007735;28;20216;-69
2022/03/19 06:39:33;;;;;;;15.17;6.70;;;;;;;;;;5004385;28;20653;-68
2022/03/19 06:41:58;;;;;;;17.67;6.50;;;;;;;;;;4992438;28;20435;-69
2022/03/19 06:44:23;;;;;;;13.63;7.50;;;;;;;;;;5002001;28;20201;-69
2022/03/19 06:46:49;;;;;;;13.17;6.40;;;;;;;;;;4997083;28;20287;-69
2022/03/19 06:49:15;;;;;;;12.00;6.30;;;;;;;;;;5002157;28;20176;-69
2022/03/19 06:51:40;;;;;;;15.87;6.77;;;;;;;;;;5000372;28;20203;-69
2022/03/19 06:54:06;;;;;;;10.87;5.80;;;;;;;;;;5009187;28;20288;-69
2022/03/19 06:56:31;;;;;;;15.70;6.07;;;;;;;;;;5012029;28;20192;-69
2022/03/19 06:58:56;;;;;;;16.53;6.03;;;;;;;;;;5007230;28;20189;-69
2022/03/19 07:01:22;;;;;;;15.67;6.00;;;;;;;;;;5012638;28;20199;-69
2022/03/19 07:03:47;;;;;;;12.60;5.70;;;;;;;;;;5007210;28;20292;-69
2022/03/19 07:06:14;;;;;;;12.03;5.27;;;;;;;;;;5010962;28;20228;-69
2022/03/19 07:08:40;;;;;;;17.10;6.57;;;;;;;;;;5004552;28;20174;-68
2022/03/19 07:11:05;;;;;;;13.83;6.70;;;;;;;;;;5003683;28;20462;-70
2022/03/19 07:13:31;;;;;;;12.93;5.60;;;;;;;;;;5010896;28;20187;-69
2022/03/19 07:15:56;;;;;;;15.83;5.33;;;;;;;;;;5010903;28;20567;-68
2022/03/19 07:18:22;;;;;;;19.37;5.80;;;;;;;;;;5010352;28;20834;-70
2022/03/19 07:20:47;;;;;;;15.03;5.20;;;;;;;;;;5013481;28;20665;-68
2022/03/19 07:23:13;;;;;;;13.73;6.27;;;;;;;;;;5008003;28;20187;-67
2022/03/19 07:25:39;;;;;;;16.07;6.17;;;;;;;;;;5010563;28;20864;-70
2022/03/19 07:28:14;;;;;;;11.27;5.53;;;;;;;;;;5026894;28;20436;-69
2022/03/19 07:30:40;;;;;;;10.83;5.30;;;;;;;;;;5006781;28;20177;-69
2022/03/19 07:33:06;;;;;;;13.07;5.03;;;;;;;;;;5009330;28;20439;-69
2022/03/19 07:35:31;;;;;;;15.70;5.70;;;;;;;;;;5023264;22;20987;-66
2022/03/19 07:38:00;;;;;;;16.87;6.07;;;;;;;;;;5015293;28;20173;-66
2022/03/19 07:43:11;;;;;;;12.40;4.80;;;;;;;;;;5021564;28;20426;-66
2022/03/19 07:45:37;;;;;;;10.93;4.63;;;;;;;;;;5020921;28;21263;-66
2022/03/19 07:48:03;;;;;;;8.33;4.80;;;;;;;;;;5008931;28;20432;-69
2022/03/19 07:50:28;;;;;;;11.87;4.40;;;;;;;;;;5005175;28;20593;-69
2022/03/19 07:52:54;;;;;;;13.20;5.10;;;;;;;;;;5005562;28;20185;-69
2022/03/19 07:55:19;;;;;;;9.73;4.60;;;;;;;;;;4995531;28;20327;-69
2022/03/19 07:57:45;;;;;;;16.17;4.97;;;;;;;;;;4999581;28;20200;-68
2022/03/19 08:00:12;;;;;;;15.30;4.77;;;;;;;;;;4998027;28;20607;-69
2022/03/19 08:02:38;;;;;;;16.00;4.43;;;;;;;;;;4996735;28;20188;-69
2022/03/19 08:05:04;;;;;;;16.90;4.77;;;;;;;;;;4994159;28;20471;-69
2022/03/19 08:07:29;;;;;;;23.80;5.73;;;;;;;;;;4995184;28;21237;-72
2022/03/19 08:09:55;;;;;;;13.27;5.07;;;;;;;;;;4998762;28;20260;-72
2022/03/19 08:12:21;;;;;;;9.87;3.53;;;;;;;;;;4997317;28;20189;-72
2022/03/19 08:14:46;;;;;;;20.27;5.30;;;;;;;;;;5002596;28;21362;-72
2022/03/19 08:17:12;;;;;;;10.00;4.30;;;;;;;;;;4995592;28;20608;-71
2022/03/19 08:19:37;;;;;;;14.97;4.20;;;;;;;;;;4996490;28;20188;-71
2022/03/19 08:22:03;;;;;;;12.13;4.17;;;;;;;;;;4997870;28;20189;-71
2022/03/19 08:24:28;;;;;;;10.10;3.80;;;;;;;;;;4998202;28;20227;-72
2022/03/19 08:26:54;;;;;;;15.23;3.93;;;;;;;;;;4998170;28;20219;-72
2022/03/19 08:29:23;;;;;;;13.17;3.83;;;;;;;;;;5001849;28;20192;-71
2022/03/19 08:31:50;;;;;;;9.33;3.30;;;;;;;;;;4999584;28;20189;-72
2022/03/19 08:34:15;;;;;;;16.20;4.50;;;;;;;;;;5001463;28;20456;-72
2022/03/19 08:36:40;;;;;;;10.63;3.27;;;;;;;;;;5001639;28;20440;-72
2022/03/19 08:41:49;;;;;;;17.97;3.77;;;;;;;;;;4998630;28;20284;-72
2022/03/19 08:44:15;;;;;;;11.20;3.70;;;;;;;;;;4993463;28;21035;-72
2022/03/19 08:46:40;;;;;;;14.80;3.73;;;;;;;;;;4996468;28;20201;-71
2022/03/19 08:49:05;;;;;;;11.27;3.90;;;;;;;;;;5000153;28;20191;-72
2022/03/19 08:51:40;;;;;;;7.10;2.70;;;;;;;;;;4999269;28;20173;-71
2022/03/19 08:54:10;;;;;;;10.60;3.00;;;;;;;;;;5002500;28;20184;-72
2022/03/19 08:56:35;;;;;;;12.60;3.50;;;;;;;;;;4996825;28;20431;-72
2022/03/19 08:59:00;;;;;;;7.97;3.07;;;;;;;;;;5000215;28;20998;-71
2022/03/19 09:01:26;;;;;;;12.30;3.63;;;;;;;;;;5000740;28;20189;-72
2022/03/19 09:03:51;;;;;;;18.97;3.90;;;;;;;;;;5000648;28;20189;-71
2022/03/19 09:06:17;;;;;;;12.97;4.27;;;;;;;;;;4997373;28;20201;-72
2022/03/19 09:08:43;;;;;;;12.40;2.80;;;;;;;;;;4999862;28;20271;-71
2022/03/19 09:11:08;;;;;;;11.13;2.77;;;;;;;;;;4998671;28;20554;-71
2022/03/19 09:13:34;;;;;;;8.47;2.60;;;;;;;;;;4999874;28;20177;-72
2022/03/19 09:15:59;;;;;;;14.73;3.40;;;;;;;;;;4996971;28;20205;-73
2022/03/19 09:18:26;;;;;;;12.10;4.00;;;;;;;;;;4997827;28;20188;-75
2022/03/19 09:20:52;;;;;;;15.00;3.80;;;;;;;;;;4994660;28;20185;-76
2022/03/19 09:23:17;;;;;;;14.23;2.27;;;;;;;;;;5000604;28;20433;-74
2022/03/19 09:25:42;;;;;;;13.30;3.07;;;;;;;;;;4995674;28;20241;-75
2022/03/19 09:28:08;;;;;;;6.93;2.60;;;;;;;;;;4999581;28;20558;-75
2022/03/19 09:30:33;;;;;;;11.53;2.93;;;;;;;;;;4998875;28;20181;-76
2022/03/19 09:33:00;;;;;;;7.83;2.60;;;;;;;;;;4998984;28;20425;-74
2022/03/19 09:35:25;;;;;;;7.43;2.60;;;;;;;;;;4996362;28;20976;-73
2022/03/19 09:37:51;;;;;;;4.30;1.97;;;;;;;;;;4994244;28;20454;-75
2022/03/19 09:40:17;;;;;;;8.17;2.50;;;;;;;;;;4991952;28;20631;-73
2022/03/19 09:42:49;;;;;;;9.27;3.13;;;;;;;;;;5002120;28;20543;-73
2022/03/19 09:45:18;;;;;;;6.37;2.43;;;;;;;;;;5001517;28;20208;-74
2022/03/19 09:47:43;;;;;;;6.23;2.30;;;;;;;;;;4996099;28;20439;-74
2022/03/19 09:50:08;;;;;;;7.80;2.33;;;;;;;;;;5012800;28;20871;-73
2022/03/19 09:52:36;;;;;;;7.03;1.73;;;;;;;;;;5002939;28;20173;-73
2022/03/19 09:55:01;;;;;;;6.60;2.00;;;;;;;;;;4993946;28;20210;-73
2022/03/19 09:57:27;;;;;;;8.63;2.50;;;;;;;;;;4998498;28;20493;-72
2022/03/19 09:59:52;;;;;;;5.80;1.93;;;;;;;;;;4995011;28;20272;-73
2022/03/19 10:02:18;;;;;;;7.53;2.20;;;;;;;;;;4995961;28;20205;-72
2022/03/19 10:04:44;;;;;;;6.70;2.20;;;;;;;;;;4989843;28;20478;-72
2022/03/19 10:09:56;;;;;;;10.87;1.90;;;;;;;;;;4999544;28;20184;-72
2022/03/19 10:12:27;;;;;;;5.83;2.03;;;;;;;;;;4998543;28;20468;-72
2022/03/19 10:14:54;;;;;;;2.70;1.53;;;;;;;;;;4995904;28;20579;-71
2022/03/19 10:17:25;;;;;;;2.90;1.20;;;;;;;;;;4991204;28;20447;-71
2022/03/19 10:19:51;;;;;;;2.60;1.50;;;;;;;;;;4998532;28;20440;-72
2022/03/19 10:22:23;;;;;;;6.80;1.37;;;;;;;;;;4995257;28;20443;-72
2022/03/19 10:24:54;;;;;;;4.07;1.30;;;;;;;;;;4988005;28;20247;-71
2022/03/19 10:27:20;;;;;;;2.57;1.00;;;;;;;;;;4999604;28;20440;-71
2022/03/19 10:29:45;;;;;;;6.23;1.73;;;;;;;;;;4995145;28;20443;-72
2022/03/19 10:32:12;;;;;;;4.60;1.43;;;;;;;;;;4997365;28;20188;-72
2022/03/19 10:34:40;;;;;;;6.10;1.57;;;;;;;;;;5000400;28;20264;-73
2022/03/19 10:37:06;;;;;;;6.90;1.87;;;;;;;;;;4994880;28;20507;-72
2022/03/19 10:39:31;;;;;;;8.80;1.60;;;;;;;;;;4997998;28;20863;-72
2022/03/19 10:41:58;;;;;;;5.60;1.63;;;;;;;;;;4999119;28;20188;-72
2022/03/19 10:44:27;;;;;;;3.33;1.07;;;;;;;;;;4999347;28;20215;-72
2022/03/19 10:46:57;;;;;;;4.73;1.80;;;;;;;;;;4995222;28;20466;-71
2022/03/19 10:49:26;;;;;;;7.13;1.63;;;;;;;;;;4997275;28;20946;-73
2022/03/19 10:51:52;;;;;;;3.47;1.13;;;;;;;;;;4988140;28;20530;-76
2022/03/19 10:54:17;;;;;;;4.90;1.20;;;;;;;;;;4993663;28;20818;-78
2022/03/19 10:56:44;;;;;;;7.20;1.40;;;;;;;;;;4992295;28;20439;-74
2022/03/19 10:59:09;;;;;;;5.60;1.47;;;;;;;;;;4995187;28;20320;-71
2022/03/19 11:01:36;;;;;;;2.70;1.33;;;;;;;;;;4995759;28;20483;-73
2022/03/19 11:04:02;;;;;;;7.57;2.17;;;;;;;;;;4992669;28;20177;-73
2022/03/19 11:06:28;;;;;;;4.77;1.70;;;;;;;;;;4994385;28;20467;-72
2022/03/19 11:08:55;;;;;;;7.10;1.97;;;;;;;;;;4992747;28;20956;-77
2022/03/19 11:11:32;;;;;;;4.63;1.30;;;;;;;;;;4987955;28;20455;-75
2022/03/19 11:13:58;;;;;;;5.00;1.10;;;;;;;;;;4997311;28;20431;-73
2022/03/19 11:16:25;;;;;;;5.60;1.47;;;;;;;;;;4997989;28;20439;-71
2022/03/19 11:18:52;;;;;;;3.40;1.40;;;;;;;;;;4999304;28;20450;-71
2022/03/19 11:21:18;;;;;;;2.70;1.20;;;;;;;;;;4994539;28;20444;-72
2022/03/19 11:24:03;;;;;;;7.63;1.60;;;;;;;;;;5001116;28;20503;-74
2022/03/19 11:26:29;;;;;;;5.00;1.50;;;;;;;;;;4999782;28;20245;-73
2022/03/19 11:28:55;;;;;;;2.27;1.10;;;;;;;;;;4998532;28;21141;-73
2022/03/19 11:31:25;;;;;;;2.23;1.00;;;;;;;;;;5000319;28;20258;-73
2022/03/19 11:33:51;;;;;;;1.87;1.30;;;;;;;;;;5003191;28;20177;-73
2022/03/19 11:36:16;;;;;;;5.97;1.30;;;;;;;;;;4998997;28;20960;-75
2022/03/19 11:38:48;;;;;;;5.40;1.20;;;;;;;;;;4999360;28;20173;-72
2022/03/19 11:41:32;;;;;;;4.83;1.30;;;;;;;;;;4999423;28;20446;-73
2022/03/19 11:44:16;;;;;;;4.03;1.07;;;;;;;;;;4998134;28;20446;-72
2022/03/19 11:47:09;;;;;;;4.10;1.20;;;;;;;;;;5005006;28;20459;-74
2022/03/19 11:50:02;;;;;;;4.33;1.40;;;;;;;;;;4998011;28;20444;-72
2022/03/19 11:52:27;;;;;;;3.10;1.33;;;;;;;;;;4997708;28;20802;-71
2022/03/19 11:55:05;;;;;;;3.17;1.43;;;;;;;;;;4996427;28;20463;-72
2022/03/19 11:57:45;;;;;;;4.77;1.20;;;;;;;;;;5016785;28;20196;-72
2022/03/19 12:00:12;;;;;;;2.93;1.20;;;;;;;;;;4999476;28;20451;-74
2022/03/19 12:03:02;;;;;;;3.50;1.17;;;;;;;;;;5001634;28;20431;-72
2022/03/19 12:05:28;;;;;;;5.13;1.10;;;;;;;;;;4993941;28;20471;-73
2022/03/19 12:07:54;;;;;;;2.20;0.97;;;;;;;;;;5003615;28;20432;-72
2022/03/19 12:10:26;;;;;;;2.03;1.20;;;;;;;;;;4997276;28;20189;-73
2022/03/19 12:12:53;;;;;;;6.00;1.80;;;;;;;;;;5003019;28;20511;-72
2022/03/19 12:15:33;;;;;;;3.53;1.70;;;;;;;;;;4999674;28;25777;-72
2022/03/19 12:18:17;;;;;;;4.83;1.40;;;;;;;;;;5002396;28;20447;-72
2022/03/19 12:20:42;;;;;;;2.00;1.10;;;;;;;;;;4998609;28;20444;-72
2022/03/19 12:23:08;;;;;;;3.03;1.40;;;;;;;;;;5000345;28;20440;-72
2022/03/19 12:25:34;;;;;;;3.53;1.50;;;;;;;;;;4998896;28;20794;-72
2022/03/19 12:27:59;;;;;;;2.70;1.10;;;;;;;;;;5001667;28;20217;-73
2022/03/19 12:30:25;;;;;;;6.27;1.30;;;;;;;;;;4997532;28;20436;-73
2022/03/19 12:32:54;;;;;;;2.10;1.30;;;;;;;;;;4997694;28;20662;-72
2022/03/19 12:35:40;;;;;;;3.10;1.50;;;;;;;;;;5003843;28;20297;-72
2022/03/19 12:38:05;;;;;;;4.10;1.60;;;;;;;;;;4992728;28;21205;-74
2022/03/19 12:41:23;;;;;;;2.40;1.40;;;;;;;;;;4993827;28;20440;-71
2022/03/19 12:43:17;;;;;;;6.07;1.00;;;;;;;;;;4985963;28;20226;-70
2022/03/19 12:45:43;;;;;;;2.00;1.17;;;;;;;;;;4997054;28;21228;-70
2022/03/19 12:48:11;;;;;;;6.13;1.43;;;;;;;;;;4998245;28;20189;-70
2022/03/19 12:50:37;;;;;;;2.33;1.27;;;;;;;;;;4999799;28;21725;-70
2022/03/19 12:53:03;;;;;;;3.20;1.40;;;;;;;;;;4999699;28;20440;-71
2022/03/19 12:55:28;;;;;;;2.33;1.30;;;;;;;;;;4995027;28;20590;-70
2022/03/19 12:57:57;;;;;;;3.23;1.40;;;;;;;;;;4994041;28;20193;-68
2022/03/19 13:00:23;;;;;;;3.13;1.30;;;;;;;;;;4998828;28;20665;-70
2022/03/19 13:02:50;;;;;;;2.67;1.20;;;;;;;;;;4999992;28;20535;-70
2022/03/19 13:05:15;;;;;;;3.23;1.20;;;;;;;;;;4992692;28;20503;-69
2022/03/19 13:07:58;;;;;;;2.83;1.33;;;;;;;;;;5001069;28;20980;-69
2022/03/19 13:10:24;;;;;;;4.27;1.33;;;;;;;;;;4997415;28;20786;-69
2022/03/19 13:13:01;;;;;;;2.90;1.10;;;;;;;;;;5001538;28;20532;-72
2022/03/19 13:15:27;;;;;;;3.67;1.53;;;;;;;;;;4993089;28;20690;-73
2022/03/19 13:17:52;;;;;;;3.93;1.63;;;;;;;;;;5009267;28;20446;-73
2022/03/19 13:20:18;;;;;;;2.80;1.13;;;;;;;;;;4996092;28;20892;-72
2022/03/19 13:22:44;;;;;;;5.10;1.77;;;;;;;;;;4995501;28;21319;-73
2022/03/19 13:25:10;;;;;;;2.70;1.10;;;;;;;;;;4997095;28;20451;-73
2022/03/19 13:27:36;;;;;;;2.50;1.33;;;;;;;;;;4995021;28;20454;-72
2022/03/19 13:30:10;;;;;;;4.03;2.00;;;;;;;;;;4998482;28;20189;-73
2022/03/19 13:32:35;;;;;;;6.30;1.73;;;;;;;;;;5001813;28;21118;-73
2022/03/19 13:35:00;;;;;;;4.13;1.70;;;;;;;;;;5001316;22;20522;-74
2022/03/19 13:37:34;;;;;;;3.53;1.43;;;;;;;;;;5026332;28;20187;-78
2022/03/19 13:40:00;;;;;;;4.50;1.47;;;;;;;;;;5017142;28;20234;-72
2022/03/19 13:42:33;;;;;;;3.93;1.50;;;;;;;;;;5015218;28;20443;-73
2022/03/19 13:45:04;;;;;;;6.43;1.80;;;;;;;;;;5015080;28;20512;-71
2022/03/19 13:47:42;;;;;;;4.10;1.77;;;;;;;;;;5017333;28;20430;-72
2022/03/19 13:50:08;;;;;;;5.60;1.77;;;;;;;;;;5014727;28;20935;-72
2022/03/19 13:52:36;;;;;;;4.80;2.00;;;;;;;;;;5007798;28;20439;-73
2022/03/19 13:55:07;;;;;;;5.13;1.93;;;;;;;;;;5002045;28;20450;-73
2022/03/19 13:57:34;;;;;;;6.90;1.90;;;;;;;;;;5017180;28;20486;-72
2022/03/19 14:00:23;;;;;;;4.60;2.20;;;;;;;;;;5014440;28;20427;-71
2022/03/19 14:02:55;;;;;;;4.40;1.53;;;;;;;;;;5014207;28;20460;-71
2022/03/19 14:05:24;;;;;;;5.63;1.70;;;;;;;;;;5011536;28;20542;-75
2022/03/19 14:07:50;;;;;;;6.87;2.20;;;;;;;;;;5007613;28;20435;-72
2022/03/19 14:10:15;;;;;;;1.73;1.57;;;;;;;;;;5005276;28;20435;-71
2022/03/19 14:12:42;;;;;;;4.10;1.70;;;;;;;;;;5011637;28;20435;-73
2022/03/19 14:15:08;;;;;;;6.27;1.60;;;;;;;;;;5012578;28;20590;-72
2022/03/19 14:17:43;;;;;;;3.00;1.50;;;;;;;;;;5009833;28;20431;-73
2022/03/19 14:20:09;;;;;;;3.43;1.43;;;;;;;;;;5013835;28;20192;-73
2022/03/19 14:22:35;;;;;;;3.50;1.70;;;;;;;;;;5008927;28;20560;-73
2022/03/19 14:25:00;;;;;;;3.00;1.70;;;;;;;;;;5013091;28;20562;-72
2022/03/19 14:27:25;;;;;;;3.63;1.97;;;;;;;;;;5008989;28;20590;-73
2022/03/19 14:29:51;;;;;;;4.40;1.60;;;;;;;;;;5008015;28;20173;-74
2022/03/19 14:32:16;;;;;;;2.97;1.57;;;;;;;;;;5011211;28;20576;-73
2022/03/19 14:34:41;;;;;;;2.30;1.37;;;;;;;;;;5011993;28;20201;-72
2022/03/19 14:37:07;;;;;;;2.70;1.33;;;;;;;;;;5011081;28;20215;-71
2022/03/19 14:39:32;;;;;;;5.80;1.77;;;;;;;;;;5008532;28;20250;-70
2022/03/19 14:41:59;;;;;;;4.37;1.80;;;;;;;;;;5008081;28;20199;-69
2022/03/19 14:44:24;;;;;;;4.17;1.83;;;;;;;;;;5012008;28;20199;-69
2022/03/19 14:46:50;;;;;;;4.77;1.60;;;;;;;;;;5012765;28;20467;-69
2022/03/19 14:49:15;;;;;;;5.10;2.27;;;;;;;;;;5013398;28;20179;-69
2022/03/19 14:51:40;;;;;;;3.27;1.83;;;;;;;;;;5009362;28;20176;-70
2022/03/19 14:54:05;;;;;;;4.43;1.53;;;;;;;;;;5011196;28;20667;-70